Time;durP1;ratioP1;P1;durP2;ratioP2;P2;SDS_P1;SDS_P2;PMS_P1;PMS_P2;Temp;Humidity;BMP_temperature;BMP_pressure;BME280_temperature;BME280_humidity;BME280_pressure;Samples;Min_cycle;Max_cycle;Signal;HPM_P1;HPM_P2
2023/09/24 00:00:33;;;;;;;26.92;8.90;;;;;;;20.02;68.08;97308.31;10284913;28;20212;-51
2023/09/24 00:05:32;;;;;;;25.55;9.02;;;;;;;20.07;67.68;97306.31;10285047;28;20070;-50
2023/09/24 00:10:31;;;;;;;29.08;8.63;;;;;;;20.07;68.37;97324.75;10283393;28;20097;-51
2023/09/24 00:15:33;;;;;;;31.08;9.38;;;;;;;20.00;68.32;97318.06;10284113;28;20038;-49
2023/09/24 00:20:31;;;;;;;28.05;9.52;;;;;;;20.03;68.78;97308.28;10283664;28;20061;-50
2023/09/24 00:25:30;;;;;;;27.45;8.38;;;;;;;20.03;68.42;97323.22;10283957;28;20116;-52
2023/09/24 00:30:31;;;;;;;33.25;10.57;;;;;;;19.97;68.57;97329.59;10284075;28;20121;-50
2023/09/24 00:35:31;;;;;;;28.13;10.57;;;;;;;19.93;69.12;97329.81;10283490;28;20505;-52
2023/09/24 00:40:31;;;;;;;25.00;10.10;;;;;;;19.73;69.58;97314.94;10280533;28;20112;-51
2023/09/24 00:45:32;;;;;;;25.60;9.82;;;;;;;19.84;69.51;97346.91;10279498;28;20065;-49
2023/09/24 00:50:33;;;;;;;26.95;9.85;;;;;;;19.71;69.65;97349.22;10280044;28;20117;-51
2023/09/24 00:55:32;;;;;;;31.40;9.05;;;;;;;19.62;70.02;97361.00;10279385;28;20077;-51
2023/09/24 01:00:34;;;;;;;21.20;8.13;;;;;;;19.74;69.60;97375.41;10279687;28;20077;-52
2023/09/24 01:05:33;;;;;;;29.25;10.00;;;;;;;19.69;69.46;97366.84;10278909;28;20509;-51
2023/09/24 01:10:32;;;;;;;24.15;8.98;;;;;;;19.74;69.75;97379.81;10279678;28;20428;-51
2023/09/24 01:15:31;;;;;;;25.33;9.10;;;;;;;19.74;69.68;97375.41;10279980;28;20029;-52
2023/09/24 01:20:32;;;;;;;25.85;8.52;;;;;;;19.72;69.76;97379.03;10279770;28;20148;-50
2023/09/24 01:25:35;;;;;;;20.17;8.63;;;;;;;19.72;69.50;97373.75;10279227;28;20092;-50
2023/09/24 01:30:34;;;;;;;23.10;8.90;;;;;;;19.64;69.55;97364.41;10281612;28;20124;-51
2023/09/24 01:35:35;;;;;;;23.08;8.93;;;;;;;19.70;69.18;97363.31;10286971;28;20111;-50
2023/09/24 01:40:37;;;;;;;18.77;8.13;;;;;;;19.65;69.16;97360.03;10286832;28;20121;-52
2023/09/24 01:45:40;;;;;;;20.90;8.32;;;;;;;19.52;68.65;97335.97;10286487;28;20096;-50
2023/09/24 01:50:39;;;;;;;20.90;8.13;;;;;;;19.69;68.77;97358.94;10286148;28;20061;-52
2023/09/24 01:55:38;;;;;;;23.25;7.97;;;;;;;19.60;69.14;97359.34;10285818;28;20065;-52
2023/09/24 02:00:39;;;;;;;21.60;8.10;;;;;;;19.61;69.19;97363.72;10286072;28;20037;-51
2023/09/24 02:05:42;;;;;;;20.52;8.93;;;;;;;19.57;69.16;97356.88;10284923;28;20080;-52
2023/09/24 02:10:42;;;;;;;18.90;8.15;;;;;;;19.30;68.89;97322.03;10285137;28;20069;-55
2023/09/24 02:15:43;;;;;;;24.80;8.23;;;;;;;19.47;69.41;97368.69;10284525;28;20146;-53
2023/09/24 02:20:43;;;;;;;19.45;9.50;;;;;;;19.45;69.28;97363.47;10285365;28;20481;-58
2023/09/24 02:25:46;;;;;;;20.35;8.30;;;;;;;19.41;69.76;97367.16;10284755;28;20599;-51
2023/09/24 02:30:46;;;;;;;23.60;7.72;;;;;;;19.35;69.80;97370.91;10284220;28;20152;-53
2023/09/24 02:35:45;;;;;;;18.83;8.57;;;;;;;19.32;69.93;97368.44;10284615;28;20069;-54
2023/09/24 02:40:44;;;;;;;26.02;7.95;;;;;;;19.23;70.19;97353.03;10284297;28;20052;-51
2023/09/24 02:45:43;;;;;;;21.75;8.65;;;;;;;19.21;70.71;97357.50;10284159;28;20033;-52
2023/09/24 02:50:42;;;;;;;25.25;9.02;;;;;;;19.22;72.15;97353.94;10283834;28;20046;-49
2023/09/24 02:55:41;;;;;;;24.42;9.23;;;;;;;18.98;71.83;97325.13;10283680;28;20116;-50
2023/09/24 03:00:43;;;;;;;25.02;9.18;;;;;;;19.01;72.28;97350.41;10283457;28;20041;-50
2023/09/24 03:05:42;;;;;;;21.77;8.60;;;;;;;18.90;72.97;97353.50;10282378;28;20097;-51
2023/09/24 03:10:41;;;;;;;23.05;9.70;;;;;;;18.77;73.13;97360.19;10282892;28;20049;-51
2023/09/24 03:15:40;;;;;;;24.27;9.00;;;;;;;18.65;73.21;97352.75;10282365;28;20128;-51
2023/09/24 03:20:39;;;;;;;20.08;8.23;;;;;;;18.63;73.37;97375.63;10282790;28;20069;-52
2023/09/24 03:25:40;;;;;;;26.55;11.18;;;;;;;18.61;73.75;97363.38;10282486;28;20029;-51
2023/09/24 03:30:38;;;;;;;26.40;11.23;;;;;;;18.50;73.99;97355.06;10281553;28;20076;-51
2023/09/24 03:35:37;;;;;;;26.90;10.85;;;;;;;18.49;74.47;97366.50;10281925;28;20033;-52
2023/09/24 03:40:36;;;;;;;25.35;9.98;;;;;;;18.37;74.80;97341.56;10282379;28;20040;-51
2023/09/24 03:45:35;;;;;;;22.23;11.20;;;;;;;18.47;75.18;97362.22;10281923;28;20878;-52
2023/09/24 03:50:36;;;;;;;23.95;10.40;;;;;;;18.39;76.58;97371.25;10282261;28;20536;-51
2023/09/24 03:55:39;;;;;;;26.85;10.80;;;;;;;18.39;76.83;97375.66;10281342;28;20067;-51
2023/09/24 04:00:38;;;;;;;24.65;9.60;;;;;;;18.09;77.65;97381.13;10281003;28;20129;-54
2023/09/24 04:05:37;;;;;;;21.98;10.25;;;;;;;18.01;77.09;97384.94;10280167;28;20522;-51
2023/09/24 04:10:36;;;;;;;19.08;10.55;;;;;;;17.80;77.73;97390.09;10280929;28;20061;-52
2023/09/24 04:15:35;;;;;;;23.40;10.55;;;;;;;17.74;78.05;97404.25;10280357;28;20098;-51
2023/09/24 04:20:34;;;;;;;26.85;10.88;;;;;;;17.61;77.97;97387.19;10280145;28;20084;-52
2023/09/24 04:25:37;;;;;;;31.55;12.02;;;;;;;17.77;78.35;97408.56;10279892;28;20056;-52
2023/09/24 04:30:36;;;;;;;30.15;11.18;;;;;;;17.81;78.63;97411.94;10279183;28;20104;-52
2023/09/24 04:35:35;;;;;;;22.58;10.52;;;;;;;17.84;79.13;97402.16;10277960;28;20105;-52
2023/09/24 04:40:34;;;;;;;28.92;12.15;;;;;;;17.96;78.92;97408.75;10281926;28;20113;-53
2023/09/24 04:45:35;;;;;;;25.67;11.25;;;;;;;18.02;78.42;97413.78;10282143;28;20112;-55
2023/09/24 04:50:34;;;;;;;22.92;11.05;;;;;;;18.19;78.19;97419.25;10282068;28;20049;-54
2023/09/24 04:55:33;;;;;;;27.20;12.98;;;;;;;18.28;78.15;97438.25;10280259;28;20069;-54
2023/09/24 05:00:32;;;;;;;27.67;10.93;;;;;;;18.36;77.95;97450.19;10280346;28;20038;-52
2023/09/24 05:05:31;;;;;;;25.92;11.02;;;;;;;18.33;77.34;97417.91;10285381;28;20057;-53
2023/09/24 05:10:30;;;;;;;31.02;11.48;;;;;;;18.80;76.86;97475.72;10289550;28;20478;-53
2023/09/24 05:15:29;;;;;;;29.15;11.05;;;;;;;18.82;76.37;97487.88;10291651;28;20041;-53
2023/09/24 05:20:30;;;;;;;22.83;10.85;;;;;;;19.07;75.83;97491.34;10288306;28;20595;-50
2023/09/24 05:25:33;;;;;;;23.95;10.68;;;;;;;19.33;75.12;97496.41;10291439;28;20473;-51
2023/09/24 05:30:32;;;;;;;25.65;11.13;;;;;;;19.54;74.35;97504.38;10289690;28;20081;-50
2023/09/24 05:35:31;;;;;;;20.33;9.73;;;;;;;19.76;73.53;97499.94;10297829;28;20137;-51
2023/09/24 05:40:30;;;;;;;22.25;9.70;;;;;;;19.99;73.04;97500.75;10286430;28;20034;-51
2023/09/24 05:45:29;;;;;;;29.52;11.48;;;;;;;20.18;72.35;97495.53;10286877;28;20037;-52
2023/09/24 05:50:29;;;;;;;24.80;10.25;;;;;;;20.29;71.63;97498.56;10285256;28;20129;-52
2023/09/24 05:55:28;;;;;;;21.92;8.77;;;;;;;20.36;71.21;97504.41;10285714;28;20134;-53
2023/09/24 06:00:28;;;;;;;18.83;7.82;;;;;;;20.53;70.21;97493.13;10285733;28;20120;-52
2023/09/24 06:05:28;;;;;;;24.48;8.68;;;;;;;20.71;69.13;97501.06;10285917;28;20076;-52
2023/09/24 06:10:27;;;;;;;21.77;8.45;;;;;;;20.91;68.57;97508.06;10284039;28;20370;-51
2023/09/24 06:15:26;;;;;;;21.98;8.98;;;;;;;21.01;68.64;97503.22;10284904;28;20026;-51
2023/09/24 06:20:25;;;;;;;19.80;8.77;;;;;;;21.19;68.54;97506.72;10284482;28;20476;-52
2023/09/24 06:25:24;;;;;;;26.65;9.40;;;;;;;21.44;68.49;97514.38;10285449;28;20412;-58
2023/09/24 06:30:24;;;;;;;21.88;8.43;;;;;;;21.58;68.28;97513.69;10284617;28;20026;-53
2023/09/24 06:35:23;;;;;;;25.42;8.88;;;;;;;21.60;67.58;97517.13;10284280;28;20116;-53
2023/09/24 06:40:22;;;;;;;19.73;7.93;;;;;;;21.73;67.09;97520.88;10283618;28;20109;-53
2023/09/24 06:45:21;;;;;;;27.60;8.27;;;;;;;21.93;66.34;97516.34;10284286;28;20153;-52
2023/09/24 06:50:22;;;;;;;24.15;7.85;;;;;;;22.11;65.77;97509.31;10284249;28;20148;-52
2023/09/24 06:55:21;;;;;;;21.10;7.68;;;;;;;21.99;64.72;97472.94;10282871;28;20572;-52
2023/09/24 07:00:20;;;;;;;20.45;8.80;;;;;;;22.17;64.73;97491.34;10283457;28;20525;-52
2023/09/24 07:05:19;;;;;;;19.42;7.60;;;;;;;22.26;64.16;97505.88;10283501;28;20124;-53
2023/09/24 07:10:22;;;;;;;17.00;7.20;;;;;;;22.39;62.89;97501.66;10282389;28;20516;-53
2023/09/24 07:15:21;;;;;;;20.65;7.75;;;;;;;22.44;61.87;97508.50;10284115;28;20587;-53
2023/09/24 07:20:20;;;;;;;27.33;7.60;;;;;;;22.59;61.00;97505.88;10282901;28;20402;-52
2023/09/24 07:25:19;;;;;;;20.33;7.00;;;;;;;22.63;60.59;97498.63;10282499;28;20465;-51
2023/09/24 07:30:18;;;;;;;22.05;7.18;;;;;;;22.91;59.98;97497.19;10281665;28;20048;-52
2023/09/24 07:35:17;;;;;;;24.00;7.45;;;;;;;23.27;59.26;97493.41;10281536;28;20116;-52
2023/09/24 07:40:16;;;;;;;22.35;8.05;;;;;;;23.50;58.42;97492.97;10284039;28;20073;-52
2023/09/24 07:45:15;;;;;;;22.48;7.65;;;;;;;23.71;57.17;97493.53;10284724;28;20075;-52
2023/09/24 07:50:14;;;;;;;15.38;6.90;;;;;;;23.80;57.19;97455.06;10283876;28;20049;-53
2023/09/24 07:55:13;;;;;;;19.33;7.70;;;;;;;24.34;57.27;97483.66;10284912;28;20058;-52
2023/09/24 08:00:13;;;;;;;20.35;7.53;;;;;;;24.47;55.70;97461.59;10284692;28;20427;-54
2023/09/24 08:05:12;;;;;;;22.33;6.78;;;;;;;24.80;53.92;97481.66;10284297;28;20111;-53
2023/09/24 08:10:11;;;;;;;22.58;6.82;;;;;;;24.90;52.68;97485.47;10283971;28;20042;-53
2023/09/24 08:15:10;;;;;;;14.60;6.75;;;;;;;24.99;52.67;97477.84;10282079;28;20129;-53
2023/09/24 08:20:10;;;;;;;21.85;7.00;;;;;;;25.01;51.13;97486.56;10283733;28;20086;-53
2023/09/24 08:25:09;;;;;;;22.08;6.65;;;;;;;25.08;50.64;97471.94;10282558;28;20077;-53
2023/09/24 08:30:08;;;;;;;18.13;7.00;;;;;;;25.39;50.58;97462.84;10284295;28;20042;-53
2023/09/24 08:35:07;;;;;;;17.83;6.75;;;;;;;25.70;49.53;97459.03;10283720;28;20484;-53
2023/09/24 08:40:09;;;;;;;19.83;6.75;;;;;;;25.89;49.63;97463.09;10280091;28;20492;-54
2023/09/24 08:45:09;;;;;;;21.77;6.78;;;;;;;26.16;49.17;97455.91;10280024;28;20129;-52
2023/09/24 08:50:09;;;;;;;20.65;6.93;;;;;;;26.25;49.20;97458.91;10278612;28;20528;-52
2023/09/24 08:55:09;;;;;;;20.73;7.13;;;;;;;26.34;48.16;97442.31;10280233;28;20053;-53
2023/09/24 09:00:11;;;;;;;26.52;7.85;;;;;;;26.40;48.51;97441.88;10279877;28;20545;-52
2023/09/24 09:05:21;;;;;;;22.65;7.18;;;;;;;26.75;48.68;97449.19;10279298;28;20141;-53
2023/09/24 09:10:25;;;;;;;26.52;7.32;;;;;;;27.11;48.38;97443.00;10278127;28;20116;-53
2023/09/24 09:15:23;;;;;;;25.70;7.05;;;;;;;27.39;47.81;97436.50;10282762;28;20113;-54
2023/09/24 09:20:47;;;;;;;23.15;6.38;;;;;;;27.46;45.60;97436.94;10279517;28;20041;-53
2023/09/24 09:25:49;;;;;;;23.75;7.22;;;;;;;27.30;45.50;97442.50;10269438;28;20133;-54
2023/09/24 09:31:10;;;;;;;15.35;6.65;;;;;;;27.57;44.88;97444.13;10279418;28;20145;-53
2023/09/24 09:36:21;;;;;;;18.35;6.28;;;;;;;28.07;43.91;97443.91;10278714;28;20133;-53
2023/09/24 09:41:23;;;;;;;21.48;6.70;;;;;;;28.33;43.51;97434.72;10276309;28;20134;-54
2023/09/24 09:46:23;;;;;;;23.40;7.25;;;;;;;28.59;43.45;97448.69;10279095;28;20574;-54
2023/09/24 09:51:24;;;;;;;18.17;6.85;;;;;;;28.99;42.00;97440.22;10268780;28;20113;-53
2023/09/24 09:56:23;;;;;;;20.95;6.22;;;;;;;28.80;41.99;97456.84;10289250;28;20124;-54
2023/09/24 10:01:22;;;;;;;18.83;6.50;;;;;;;28.06;43.72;97453.72;10285834;28;20061;-55
2023/09/24 10:06:22;;;;;;;21.80;7.18;;;;;;;28.20;44.00;97458.03;10267729;28;20129;-54
2023/09/24 10:11:33;;;;;;;17.30;6.10;;;;;;;27.92;44.49;97451.28;10285697;28;20608;-54
2023/09/24 10:16:41;;;;;;;21.40;6.07;;;;;;;28.25;43.94;97448.69;10285209;28;20132;-54
2023/09/24 10:21:45;;;;;;;18.33;6.00;;;;;;;27.82;44.51;97451.09;10288400;28;20533;-54
2023/09/24 10:26:50;;;;;;;22.13;9.20;;;;;;;28.00;44.96;97440.84;10287040;28;20062;-54
2023/09/24 10:32:11;;;;;;;18.85;6.18;;;;;;;28.22;43.82;97445.38;10286870;28;20116;-54
2023/09/24 10:37:10;;;;;;;20.27;6.38;;;;;;;28.49;43.45;97417.53;10288898;28;20461;-53
2023/09/24 10:42:09;;;;;;;20.17;6.88;;;;;;;28.41;43.68;97432.31;10291450;28;20064;-53
2023/09/24 10:47:25;;;;;;;20.50;5.97;;;;;;;28.38;43.08;97440.56;10291089;28;20030;-53
2023/09/24 10:52:24;;;;;;;19.33;5.78;;;;;;;28.36;43.84;97425.63;10290570;28;20501;-54
2023/09/24 10:57:24;;;;;;;17.52;6.03;;;;;;;28.23;43.46;97426.59;10289597;28;20073;-54
2023/09/24 11:02:24;;;;;;;19.38;7.07;;;;;;;28.30;44.59;97431.47;10290456;28;20536;-54
2023/09/24 11:07:23;;;;;;;18.95;6.15;;;;;;;28.50;43.48;97417.41;10286129;28;20061;-55
2023/09/24 11:12:22;;;;;;;17.17;5.50;;;;;;;28.50;43.15;97428.09;10287015;28;20125;-55
2023/09/24 11:17:21;;;;;;;20.05;6.32;;;;;;;28.56;43.31;97410.72;10294933;28;20901;-54
2023/09/24 11:22:22;;;;;;;19.73;6.30;;;;;;;28.62;42.67;97412.91;10285196;28;20199;-52
2023/09/24 11:27:21;;;;;;;22.48;6.35;;;;;;;28.95;42.88;97412.03;10280944;28;20128;-53
2023/09/24 11:32:24;;;;;;;18.63;6.57;;;;;;;28.71;41.92;97363.28;10287552;28;20018;-54
2023/09/24 11:37:24;;;;;;;20.35;6.07;;;;;;;29.12;41.60;97417.81;10283707;28;20917;-54
2023/09/24 11:42:23;;;;;;;23.02;6.63;;;;;;;29.08;41.88;97402.03;10287803;28;20132;-54
2023/09/24 11:47:22;;;;;;;17.20;5.93;;;;;;;29.37;41.51;97406.84;10284088;28;20033;-54
2023/09/24 11:52:21;;;;;;;20.70;5.75;;;;;;;28.62;41.95;97301.63;10283944;28;20038;-54
2023/09/24 11:57:20;;;;;;;18.95;6.65;;;;;;;29.54;41.06;97399.22;10284163;28;20124;-54
2023/09/24 12:02:19;;;;;;;16.10;6.65;;;;;;;29.40;41.32;97397.72;10281182;28;20125;-54
2023/09/24 12:07:19;;;;;;;18.15;6.30;;;;;;;29.47;41.65;97399.72;10280081;28;20033;-54
2023/09/24 12:12:18;;;;;;;17.70;5.60;;;;;;;29.50;41.66;97410.16;10282913;28;20066;-55
2023/09/24 12:17:16;;;;;;;22.20;6.45;;;;;;;29.46;41.48;97399.84;10281757;28;20109;-55
2023/09/24 12:22:16;;;;;;;21.52;6.47;;;;;;;29.29;41.64;97366.53;10282641;28;20116;-55
2023/09/24 12:27:15;;;;;;;16.63;6.10;;;;;;;29.25;42.26;97399.78;10282736;28;20068;-54
2023/09/24 12:32:14;;;;;;;17.35;5.55;;;;;;;28.78;42.82;97384.03;10283422;28;20053;-54
2023/09/24 12:37:13;;;;;;;17.50;5.95;;;;;;;29.07;43.54;97403.00;10280300;28;20040;-54
2023/09/24 12:42:12;;;;;;;17.65;6.70;;;;;;;29.14;43.29;97411.38;10280513;28;20022;-54
2023/09/24 12:47:11;;;;;;;15.13;6.25;;;;;;;28.72;43.78;97413.91;10277048;28;20065;-54
2023/09/24 12:52:11;;;;;;;22.80;6.28;;;;;;;28.51;44.36;97392.41;10277353;28;20043;-54
2023/09/24 12:57:10;;;;;;;15.48;6.03;;;;;;;28.40;45.46;97397.75;10277745;28;20084;-54
2023/09/24 13:02:09;;;;;;;14.43;6.57;;;;;;;28.41;45.18;97413.66;10279213;28;20038;-54
2023/09/24 13:07:08;;;;;;;19.25;6.95;;;;;;;28.54;45.29;97426.84;10280862;28;20045;-54
2023/09/24 13:12:07;;;;;;;20.08;7.55;;;;;;;28.58;45.10;97420.31;10282395;28;20049;-54
2023/09/24 13:17:06;;;;;;;18.63;6.85;;;;;;;28.83;44.75;97421.91;10278583;28;20073;-54
2023/09/24 13:22:05;;;;;;;17.77;6.10;;;;;;;28.83;44.37;97416.56;10279120;28;20124;-54
2023/09/24 13:27:05;;;;;;;23.45;7.15;;;;;;;28.80;44.50;97434.63;10279776;28;20034;-54
2023/09/24 13:32:04;;;;;;;17.52;7.30;;;;;;;28.85;44.69;97448.47;10285607;28;20660;-54
2023/09/24 13:37:03;;;;;;;15.15;6.13;;;;;;;28.55;44.81;97439.25;10282806;28;20501;-54
2023/09/24 13:42:02;;;;;;;13.48;5.75;;;;;;;28.07;45.88;97451.91;10285911;28;20038;-54
2023/09/24 13:47:01;;;;;;;18.00;7.10;;;;;;;27.89;46.51;97465.66;10285398;28;20549;-54
2023/09/24 13:52:00;;;;;;;16.23;6.05;;;;;;;27.41;47.45;97469.22;10286271;28;20023;-54
2023/09/24 13:56:59;;;;;;;14.77;6.88;;;;;;;27.06;48.73;97471.81;10285944;28;20130;-54
2023/09/24 14:02:03;;;;;;;17.85;7.57;;;;;;;27.17;48.43;97468.38;10285572;28;20117;-54
2023/09/24 14:07:02;;;;;;;18.35;8.65;;;;;;;27.24;48.55;97474.94;10267990;28;20332;-54
2023/09/24 14:17:20;;;;;;;18.27;7.35;;;;;;;27.08;49.34;97463.72;10280086;28;20128;-54
2023/09/24 14:22:19;;;;;;;13.35;7.75;;;;;;;27.10;48.90;97459.13;10280253;28;20117;-54
2023/09/24 14:27:18;;;;;;;16.40;7.78;;;;;;;26.93;49.33;97477.19;10284379;28;20042;-55
2023/09/24 14:32:17;;;;;;;18.63;8.23;;;;;;;27.19;48.99;97477.09;10280555;28;20034;-53
2023/09/24 14:37:17;;;;;;;16.88;8.07;;;;;;;26.89;49.46;97497.00;10282352;28;20109;-53
2023/09/24 14:42:16;;;;;;;16.13;7.60;;;;;;;26.65;49.99;97512.00;10286541;28;20571;-53
2023/09/24 14:47:15;;;;;;;22.98;8.27;;;;;;;26.48;50.87;97522.00;10284501;28;20038;-54
2023/09/24 14:52:14;;;;;;;21.13;8.25;;;;;;;25.90;52.33;97508.22;10283831;28;20663;-53
2023/09/24 14:57:13;;;;;;;18.38;7.75;;;;;;;25.72;53.18;97504.97;10283916;28;20553;-53
2023/09/24 15:02:12;;;;;;;12.80;7.75;;;;;;;25.56;53.53;97504.28;10283447;28;20141;-53
2023/09/24 15:07:11;;;;;;;18.38;8.73;;;;;;;25.29;54.35;97497.13;10282641;28;20158;-53
2023/09/24 15:12:12;;;;;;;14.10;8.27;;;;;;;25.47;53.83;97510.16;10283438;28;20030;-53
2023/09/24 15:17:11;;;;;;;18.23;8.55;;;;;;;25.64;53.54;97527.69;10282714;28;20076;-53
2023/09/24 15:22:10;;;;;;;15.18;8.63;;;;;;;25.65;53.41;97555.97;10283294;28;20125;-53
2023/09/24 15:27:09;;;;;;;16.60;8.98;;;;;;;25.74;53.33;97582.81;10282606;28;20041;-54
2023/09/24 15:32:09;;;;;;;18.55;8.75;;;;;;;25.51;53.65;97543.56;10282773;28;20036;-57
2023/09/24 15:37:08;;;;;;;16.73;8.45;;;;;;;25.66;53.61;97569.16;10283635;28;20116;-58
2023/09/24 15:42:07;;;;;;;16.75;8.80;;;;;;;25.12;54.96;97584.97;10285195;28;20036;-57
2023/09/24 15:47:06;;;;;;;19.30;9.57;;;;;;;24.99;59.29;97586.69;10285185;28;20121;-56
2023/09/24 15:52:05;;;;;;;19.23;10.13;;;;;;;24.65;62.80;97607.31;10284252;28;20117;-55
2023/09/24 15:57:04;;;;;;;23.48;11.23;;;;;;;24.67;67.20;97602.78;10283368;28;20064;-53
2023/09/24 16:02:03;;;;;;;21.52;10.38;;;;;;;24.37;64.85;97574.47;10283656;28;20588;-54
2023/09/24 16:07:03;;;;;;;19.65;11.65;;;;;;;24.41;70.02;97559.25;10283593;28;20141;-52
2023/09/24 16:12:02;;;;;;;22.77;12.15;;;;;;;24.21;72.41;97541.88;10281693;28;20061;-52
2023/09/24 16:17:01;;;;;;;26.17;13.07;;;;;;;24.12;73.76;97540.56;10285290;28;20053;-53
2023/09/24 16:22:00;;;;;;;23.02;14.52;;;;;;;23.95;74.61;97528.34;10282900;28;20049;-53
2023/09/24 16:26:59;;;;;;;21.92;13.48;;;;;;;23.90;76.72;97513.66;10283532;28;20042;-52
2023/09/24 16:31:58;;;;;;;23.60;13.38;;;;;;;23.71;76.78;97535.91;10284084;28;20390;-52
2023/09/24 16:37:00;;;;;;;24.25;13.63;;;;;;;23.52;77.63;97551.16;10281859;28;20086;-55
2023/09/24 16:41:59;;;;;;;25.35;13.10;;;;;;;23.41;77.54;97555.22;10278286;28;20129;-52
2023/09/24 16:46:58;;;;;;;21.15;13.25;;;;;;;23.32;78.92;97557.53;10279308;28;20030;-53
2023/09/24 16:51:57;;;;;;;19.83;13.20;;;;;;;23.20;78.72;97562.56;10279629;28;20113;-53
2023/09/24 16:56:57;;;;;;;19.77;12.60;;;;;;;22.92;78.72;97557.94;10279271;28;20046;-52
2023/09/24 17:02:00;;;;;;;19.67;13.65;;;;;;;22.67;79.76;97563.66;10278630;28;20137;-51
2023/09/24 17:06:59;;;;;;;18.95;13.50;;;;;;;22.51;80.47;97557.47;10278095;28;20505;-52
2023/09/24 17:11:58;;;;;;;23.35;13.82;;;;;;;22.45;80.53;97571.00;10277958;28;20404;-52
2023/09/24 17:16:57;;;;;;;28.98;13.40;;;;;;;22.49;80.81;97559.34;10279021;28;20037;-51
2023/09/24 17:21:58;;;;;;;24.25;14.15;;;;;;;22.33;81.27;97549.56;10279718;28;20024;-52
2023/09/24 17:26:57;;;;;;;23.52;14.00;;;;;;;22.23;81.14;97543.03;10278649;28;20117;-52
2023/09/24 17:31:57;;;;;;;24.98;14.80;;;;;;;22.33;81.57;97569.84;10279184;28;20073;-52
2023/09/24 17:36:57;;;;;;;22.02;14.65;;;;;;;22.23;81.66;97555.41;10278720;28;20141;-51
2023/09/24 17:41:57;;;;;;;24.20;14.80;;;;;;;22.24;81.88;97555.31;10278722;28;20532;-52
2023/09/24 17:46:55;;;;;;;22.08;14.70;;;;;;;22.16;81.98;97570.72;10278009;28;20125;-52
2023/09/24 17:51:54;;;;;;;20.48;13.75;;;;;;;22.09;81.84;97554.31;10278174;28;20348;-52
2023/09/24 17:56:53;;;;;;;22.05;14.30;;;;;;;22.00;82.25;97564.50;10277321;28;20509;-51
2023/09/24 18:01:54;;;;;;;22.15;14.32;;;;;;;21.95;83.20;97572.63;10278190;28;20072;-51
2023/09/24 18:06:53;;;;;;;23.42;14.18;;;;;;;21.89;82.99;97565.00;10278707;28;20500;-52
2023/09/24 18:11:52;;;;;;;24.80;13.75;;;;;;;21.83;83.19;97566.16;10278106;28;20460;-51
2023/09/24 18:16:51;;;;;;;25.48;15.38;;;;;;;21.68;83.70;97551.91;10284839;28;20116;-52
2023/09/24 18:21:50;;;;;;;23.95;14.65;;;;;;;21.62;83.63;97560.16;10285373;28;20440;-51
2023/09/24 18:26:52;;;;;;;19.77;14.00;;;;;;;21.56;83.57;97549.88;10284952;28;20037;-52
2023/09/24 18:31:51;;;;;;;23.35;14.85;;;;;;;21.42;83.90;97550.53;10284751;28;20285;-53
2023/09/24 18:36:50;;;;;;;22.90;14.70;;;;;;;21.13;84.69;97523.72;10285072;28;20026;-53
2023/09/24 18:41:48;;;;;;;26.15;13.73;;;;;;;21.11;84.81;97541.41;10286531;28;20728;-52
2023/09/24 18:46:47;;;;;;;24.08;14.75;;;;;;;21.09;84.88;97553.81;10286245;28;20034;-53
2023/09/24 18:51:46;;;;;;;29.33;17.27;;;;;;;21.01;84.93;97555.09;10287297;28;20075;-53
2023/09/24 18:56:45;;;;;;;24.17;17.05;;;;;;;20.92;85.64;97566.94;10284842;28;20017;-53
2023/09/24 19:01:44;;;;;;;26.98;16.75;;;;;;;20.86;85.99;97583.88;10284730;28;20517;-51
2023/09/24 19:06:43;;;;;;;28.45;16.50;;;;;;;20.81;86.29;97587.66;10285900;28;20473;-51
2023/09/24 19:11:42;;;;;;;29.42;16.25;;;;;;;20.38;87.51;97545.59;10283803;28;20065;-53
2023/09/24 19:16:41;;;;;;;23.35;17.40;;;;;;;20.67;88.38;97612.00;10285586;28;20036;-51
2023/09/24 19:21:40;;;;;;;22.35;16.58;;;;;;;20.60;89.87;97623.75;10284542;28;20069;-52
2023/09/24 19:26:39;;;;;;;29.33;17.98;;;;;;;20.57;89.68;97630.00;10282636;28;20132;-51
2023/09/24 19:31:38;;;;;;;31.92;18.05;;;;;;;20.19;89.49;97576.25;10285352;28;20069;-51
2023/09/24 19:36:38;;;;;;;28.00;18.15;;;;;;;20.58;89.99;97652.81;10284398;28;20036;-50
2023/09/24 19:41:37;;;;;;;26.83;17.77;;;;;;;20.64;90.04;97655.19;10281135;28;20551;-50
2023/09/24 19:46:36;;;;;;;24.33;16.45;;;;;;;20.66;89.39;97663.91;10277957;28;20045;-51
2023/09/24 19:51:36;;;;;;;26.13;16.40;;;;;;;20.67;89.47;97668.22;10279982;28;20133;-51
2023/09/24 19:56:36;;;;;;;26.05;16.13;;;;;;;20.63;89.44;97686.88;10279331;28;20129;-52
2023/09/24 20:01:35;;;;;;;25.80;16.13;;;;;;;20.62;89.45;97693.94;10279995;28;20153;-52
2023/09/24 20:06:34;;;;;;;26.50;14.93;;;;;;;20.65;89.24;97703.50;10280629;28;20048;-53
2023/09/24 20:11:33;;;;;;;26.08;16.02;;;;;;;20.67;89.07;97709.56;10274982;28;20730;-52
2023/09/24 20:16:32;;;;;;;28.02;15.80;;;;;;;20.68;89.13;97722.69;10259037;28;20073;-52
2023/09/24 20:21:31;;;;;;;27.95;15.55;;;;;;;20.70;88.96;97735.81;10278345;28;20168;-53
2023/09/24 20:26:37;;;;;;;24.77;14.13;;;;;;;20.45;89.84;97721.03;10259426;28;20140;-52
2023/09/24 20:31:37;;;;;;;23.98;15.10;;;;;;;20.59;89.51;97736.28;10279262;28;20173;-51
2023/09/24 20:36:37;;;;;;;24.90;15.38;;;;;;;20.44;89.46;97708.75;10279795;28;20128;-51
2023/09/24 20:41:37;;;;;;;26.13;15.48;;;;;;;20.63;89.43;97729.97;10278589;28;20120;-53
2023/09/24 20:46:39;;;;;;;23.65;16.15;;;;;;;20.62;89.74;97744.03;10278618;28;20137;-52
2023/09/24 20:51:39;;;;;;;23.60;15.85;;;;;;;20.44;90.90;97747.44;10277634;28;20122;-52
2023/09/24 20:56:38;;;;;;;24.92;17.55;;;;;;;19.94;91.64;97723.94;10275518;28;20144;-51
2023/09/24 21:01:37;;;;;;;24.48;16.83;;;;;;;20.10;91.30;97740.88;10279327;28;20057;-52
2023/09/24 21:06:36;;;;;;;29.15;16.55;;;;;;;20.14;91.38;97745.09;10278657;28;20057;-52
2023/09/24 21:11:35;;;;;;;23.90;15.63;;;;;;;20.14;91.02;97726.66;10279118;28;20561;-52
2023/09/24 21:16:34;;;;;;;24.90;14.90;;;;;;;20.25;90.74;97740.25;10279530;28;20556;-52
2023/09/24 21:21:36;;;;;;;24.40;14.93;;;;;;;20.28;90.71;97726.06;10279401;28;20520;-51
2023/09/24 21:26:35;;;;;;;20.15;15.18;;;;;;;20.25;90.78;97727.06;10277931;28;20065;-52
2023/09/24 21:31:34;;;;;;;24.23;15.50;;;;;;;20.24;90.75;97714.81;10278952;28;20117;-55
2023/09/24 21:36:35;;;;;;;23.73;14.82;;;;;;;20.28;90.52;97724.31;10278132;28;20068;-51
2023/09/24 21:41:33;;;;;;;23.85;15.18;;;;;;;20.26;90.35;97736.69;10278852;28;20616;-50
2023/09/24 21:46:33;;;;;;;24.75;15.57;;;;;;;20.28;90.29;97731.34;10279563;28;20547;-51
2023/09/24 21:51:32;;;;;;;25.95;15.52;;;;;;;20.33;90.31;97732.03;10286020;28;20068;-51
2023/09/24 21:56:31;;;;;;;28.92;15.15;;;;;;;20.12;90.21;97699.53;10268422;28;20064;-49
2023/09/24 22:01:30;;;;;;;29.67;16.00;;;;;;;20.13;90.04;97698.59;10284595;28;20145;-50
2023/09/24 22:06:30;;;;;;;25.05;15.48;;;;;;;20.49;89.95;97742.81;10287789;28;20030;-51
2023/09/24 22:11:28;;;;;;;24.30;16.52;;;;;;;20.56;89.92;97736.38;10285032;28;20088;-51
2023/09/24 22:16:27;;;;;;;19.85;14.75;;;;;;;20.38;89.85;97703.72;10284310;28;20359;-51
2023/09/24 22:21:28;;;;;;;25.35;15.32;;;;;;;20.61;89.71;97731.78;10284960;28;20140;-52
2023/09/24 22:26:27;;;;;;;22.05;15.07;;;;;;;20.65;89.66;97730.72;10287197;28;20125;-52
2023/09/24 22:31:26;;;;;;;23.48;15.32;;;;;;;20.68;89.53;97740.28;10270361;28;20132;-51
2023/09/24 22:36:25;;;;;;;26.20;15.65;;;;;;;20.71;89.57;97742.81;10286859;28;20245;-51
2023/09/24 22:41:24;;;;;;;25.20;15.70;;;;;;;20.73;89.43;97740.97;10284869;28;20044;-51
2023/09/24 22:46:24;;;;;;;20.45;14.88;;;;;;;20.76;89.36;97745.25;10287929;28;20037;-51
2023/09/24 22:51:23;;;;;;;22.95;15.52;;;;;;;20.77;88.77;97741.69;10285246;28;20077;-51
2023/09/24 22:56:22;;;;;;;27.83;15.73;;;;;;;20.64;88.47;97736.09;10288024;28;20053;-52